sensor_id;sensor_type;location;lat;lon;timestamp;P1;durP1;ratioP1;P2;durP2;ratioP2
23543;SDS011;11950;51.230;4.012;2023-04-01T00:00:57;5.88;;;1.77;;
23543;SDS011;11950;51.230;4.012;2023-04-01T00:03:25;6.28;;;1.75;;
23543;SDS011;11950;51.230;4.012;2023-04-01T00:05:53;4.22;;;2.05;;
23543;SDS011;11950;51.230;4.012;2023-04-01T00:08:20;4.50;;;2.33;;
23543;SDS011;11950;51.230;4.012;2023-04-01T00:10:46;4.40;;;1.88;;
23543;SDS011;11950;51.230;4.012;2023-04-01T00:13:13;5.32;;;1.73;;
23543;SDS011;11950;51.230;4.012;2023-04-01T00:15:40;5.72;;;1.80;;
23543;SDS011;11950;51.230;4.012;2023-04-01T00:18:07;6.03;;;1.90;;
23543;SDS011;11950;51.230;4.012;2023-04-01T00:20:34;4.93;;;1.83;;
23543;SDS011;11950;51.230;4.012;2023-04-01T00:23:00;6.35;;;1.80;;
23543;SDS011;11950;51.230;4.012;2023-04-01T00:25:27;6.88;;;1.40;;
23543;SDS011;11950;51.230;4.012;2023-04-01T00:27:54;7.70;;;2.13;;
23543;SDS011;11950;51.230;4.012;2023-04-01T00:30:20;5.80;;;1.42;;
23543;SDS011;11950;51.230;4.012;2023-04-01T00:32:47;7.63;;;1.80;;
23543;SDS011;11950;51.230;4.012;2023-04-01T00:35:16;4.15;;;1.40;;
23543;SDS011;11950;51.230;4.012;2023-04-01T00:37:43;5.57;;;1.38;;
23543;SDS011;11950;51.230;4.012;2023-04-01T00:40:20;8.65;;;1.48;;
23543;SDS011;11950;51.230;4.012;2023-04-01T00:42:53;5.43;;;1.50;;
23543;SDS011;11950;51.230;4.012;2023-04-01T00:45:28;7.93;;;1.60;;
23543;SDS011;11950;51.230;4.012;2023-04-01T00:47:55;7.38;;;1.42;;
23543;SDS011;11950;51.230;4.012;2023-04-01T00:50:24;5.00;;;1.63;;
23543;SDS011;11950;51.230;4.012;2023-04-01T00:52:52;6.05;;;1.60;;
23543;SDS011;11950;51.230;4.012;2023-04-01T00:55:19;6.13;;;1.52;;
23543;SDS011;11950;51.230;4.012;2023-04-01T00:57:47;7.22;;;1.52;;
23543;SDS011;11950;51.230;4.012;2023-04-01T01:00:16;9.27;;;1.88;;
23543;SDS011;11950;51.230;4.012;2023-04-01T01:02:44;6.55;;;1.83;;
23543;SDS011;11950;51.230;4.012;2023-04-01T01:05:12;9.85;;;2.22;;
23543;SDS011;11950;51.230;4.012;2023-04-01T01:07:51;6.18;;;1.60;;
23543;SDS011;11950;51.230;4.012;2023-04-01T01:10:29;7.70;;;2.20;;
23543;SDS011;11950;51.230;4.012;2023-04-01T01:21:10;5.72;;;2.33;;
23543;SDS011;11950;51.230;4.012;2023-04-01T01:37:12;4.25;;;1.92;;
23543;SDS011;11950;51.230;4.012;2023-04-01T01:39:41;3.22;;;1.70;;
23543;SDS011;11950;51.230;4.012;2023-04-01T01:42:11;5.07;;;2.08;;
23543;SDS011;11950;51.230;4.012;2023-04-01T01:44:41;3.58;;;2.15;;
23543;SDS011;11950;51.230;4.012;2023-04-01T01:47:10;2.30;;;2.10;;
23543;SDS011;11950;51.230;4.012;2023-04-01T01:49:37;3.38;;;2.28;;
23543;SDS011;11950;51.230;4.012;2023-04-01T01:52:06;5.32;;;2.22;;
23543;SDS011;11950;51.230;4.012;2023-04-01T01:54:33;4.00;;;1.73;;
23543;SDS011;11950;51.230;4.012;2023-04-01T01:57:06;4.45;;;1.90;;
23543;SDS011;11950;51.230;4.012;2023-04-01T01:59:38;4.30;;;2.00;;
23543;SDS011;11950;51.230;4.012;2023-04-01T02:02:11;4.45;;;1.98;;
23543;SDS011;11950;51.230;4.012;2023-04-01T02:04:40;4.75;;;1.60;;
23543;SDS011;11950;51.230;4.012;2023-04-01T02:07:12;4.25;;;1.80;;
23543;SDS011;11950;51.230;4.012;2023-04-01T02:09:44;4.28;;;1.67;;
23543;SDS011;11950;51.230;4.012;2023-04-01T02:12:12;4.47;;;2.08;;
23543;SDS011;11950;51.230;4.012;2023-04-01T02:17:21;3.28;;;1.77;;
23543;SDS011;11950;51.230;4.012;2023-04-01T02:20:06;4.57;;;2.17;;
23543;SDS011;11950;51.230;4.012;2023-04-01T02:22:36;3.88;;;1.80;;
23543;SDS011;11950;51.230;4.012;2023-04-01T02:25:09;4.43;;;2.03;;
23543;SDS011;11950;51.230;4.012;2023-04-01T02:30:07;3.58;;;2.05;;
23543;SDS011;11950;51.230;4.012;2023-04-01T02:32:34;4.60;;;2.30;;
23543;SDS011;11950;51.230;4.012;2023-04-01T02:35:10;4.43;;;2.30;;
23543;SDS011;11950;51.230;4.012;2023-04-01T02:37:40;6.03;;;2.10;;
23543;SDS011;11950;51.230;4.012;2023-04-01T02:40:08;5.32;;;2.00;;
23543;SDS011;11950;51.230;4.012;2023-04-01T02:42:36;5.10;;;2.60;;
23543;SDS011;11950;51.230;4.012;2023-04-01T02:45:03;7.05;;;2.60;;
23543;SDS011;11950;51.230;4.012;2023-04-01T02:47:31;4.57;;;2.55;;
23543;SDS011;11950;51.230;4.012;2023-04-01T02:49:58;5.10;;;2.10;;
23543;SDS011;11950;51.230;4.012;2023-04-01T02:52:25;3.60;;;2.20;;
23543;SDS011;11950;51.230;4.012;2023-04-01T02:54:52;5.50;;;2.28;;
23543;SDS011;11950;51.230;4.012;2023-04-01T02:57:19;6.35;;;2.40;;
23543;SDS011;11950;51.230;4.012;2023-04-01T02:59:47;6.22;;;2.55;;
23543;SDS011;11950;51.230;4.012;2023-04-01T03:02:14;4.75;;;2.20;;
23543;SDS011;11950;51.230;4.012;2023-04-01T03:04:43;3.20;;;1.48;;
23543;SDS011;11950;51.230;4.012;2023-04-01T03:07:10;4.78;;;2.20;;
23543;SDS011;11950;51.230;4.012;2023-04-01T03:09:37;4.88;;;2.42;;
23543;SDS011;11950;51.230;4.012;2023-04-01T03:12:04;6.35;;;2.30;;
23543;SDS011;11950;51.230;4.012;2023-04-01T03:14:37;4.22;;;2.45;;
23543;SDS011;11950;51.230;4.012;2023-04-01T03:17:03;5.55;;;2.28;;
23543;SDS011;11950;51.230;4.012;2023-04-01T03:19:31;5.70;;;2.55;;
23543;SDS011;11950;51.230;4.012;2023-04-01T03:22:01;3.85;;;1.98;;
23543;SDS011;11950;51.230;4.012;2023-04-01T03:24:28;4.32;;;1.90;;
23543;SDS011;11950;51.230;4.012;2023-04-01T03:26:54;4.60;;;1.98;;
23543;SDS011;11950;51.230;4.012;2023-04-01T03:29:20;6.63;;;1.92;;
23543;SDS011;11950;51.230;4.012;2023-04-01T03:31:47;2.28;;;2.08;;
23543;SDS011;11950;51.230;4.012;2023-04-01T03:34:13;4.60;;;2.03;;
23543;SDS011;11950;51.230;4.012;2023-04-01T03:36:40;4.38;;;2.28;;
23543;SDS011;11950;51.230;4.012;2023-04-01T03:39:10;4.82;;;2.33;;
23543;SDS011;11950;51.230;4.012;2023-04-01T03:41:40;7.45;;;3.22;;
23543;SDS011;11950;51.230;4.012;2023-04-01T03:44:07;4.18;;;2.53;;
23543;SDS011;11950;51.230;4.012;2023-04-01T03:46:33;8.63;;;2.80;;
23543;SDS011;11950;51.230;4.012;2023-04-01T03:49:00;3.30;;;2.15;;
23543;SDS011;11950;51.230;4.012;2023-04-01T03:51:26;3.22;;;2.50;;
23543;SDS011;11950;51.230;4.012;2023-04-01T03:53:53;6.53;;;3.03;;
23543;SDS011;11950;51.230;4.012;2023-04-01T03:56:19;5.10;;;2.63;;
23543;SDS011;11950;51.230;4.012;2023-04-01T03:58:45;3.20;;;1.83;;
23543;SDS011;11950;51.230;4.012;2023-04-01T04:01:13;4.55;;;1.70;;
23543;SDS011;11950;51.230;4.012;2023-04-01T04:03:41;2.40;;;1.58;;
23543;SDS011;11950;51.230;4.012;2023-04-01T04:06:10;2.38;;;1.75;;
23543;SDS011;11950;51.230;4.012;2023-04-01T04:08:37;4.07;;;1.90;;
23543;SDS011;11950;51.230;4.012;2023-04-01T04:11:04;4.88;;;2.17;;
23543;SDS011;11950;51.230;4.012;2023-04-01T04:13:31;3.63;;;1.83;;
23543;SDS011;11950;51.230;4.012;2023-04-01T04:16:00;2.78;;;1.77;;
23543;SDS011;11950;51.230;4.012;2023-04-01T04:18:28;5.13;;;2.22;;
23543;SDS011;11950;51.230;4.012;2023-04-01T04:20:55;9.70;;;2.25;;
23543;SDS011;11950;51.230;4.012;2023-04-01T04:23:22;3.28;;;2.00;;
23543;SDS011;11950;51.230;4.012;2023-04-01T04:25:58;4.70;;;1.92;;
23543;SDS011;11950;51.230;4.012;2023-04-01T04:28:27;4.25;;;2.10;;
23543;SDS011;11950;51.230;4.012;2023-04-01T04:30:56;3.85;;;1.77;;
23543;SDS011;11950;51.230;4.012;2023-04-01T04:33:23;2.45;;;1.88;;
23543;SDS011;11950;51.230;4.012;2023-04-01T04:35:51;2.83;;;1.48;;
23543;SDS011;11950;51.230;4.012;2023-04-01T04:38:21;3.72;;;1.83;;
23543;SDS011;11950;51.230;4.012;2023-04-01T04:40:47;2.13;;;1.38;;
23543;SDS011;11950;51.230;4.012;2023-04-01T04:43:14;1.90;;;1.40;;
23543;SDS011;11950;51.230;4.012;2023-04-01T04:45:42;3.55;;;1.40;;
23543;SDS011;11950;51.230;4.012;2023-04-01T04:48:10;4.90;;;1.50;;
23543;SDS011;11950;51.230;4.012;2023-04-01T04:50:45;2.72;;;1.98;;
23543;SDS011;11950;51.230;4.012;2023-04-01T04:53:12;2.03;;;1.42;;
23543;SDS011;11950;51.230;4.012;2023-04-01T04:55:44;4.55;;;1.15;;
23543;SDS011;11950;51.230;4.012;2023-04-01T04:58:22;3.60;;;1.25;;
23543;SDS011;11950;51.230;4.012;2023-04-01T05:00:49;5.70;;;1.10;;
23543;SDS011;11950;51.230;4.012;2023-04-01T05:03:24;4.40;;;1.25;;
23543;SDS011;11950;51.230;4.012;2023-04-01T05:05:52;3.13;;;1.10;;
23543;SDS011;11950;51.230;4.012;2023-04-01T05:08:19;1.90;;;0.70;;
23543;SDS011;11950;51.230;4.012;2023-04-01T05:10:46;1.63;;;0.80;;
23543;SDS011;11950;51.230;4.012;2023-04-01T05:13:12;1.27;;;0.80;;
23543;SDS011;11950;51.230;4.012;2023-04-01T05:15:40;1.98;;;0.90;;
23543;SDS011;11950;51.230;4.012;2023-04-01T05:18:06;2.03;;;0.93;;
23543;SDS011;11950;51.230;4.012;2023-04-01T05:20:34;1.65;;;0.82;;
23543;SDS011;11950;51.230;4.012;2023-04-01T05:23:00;6.68;;;1.00;;
23543;SDS011;11950;51.230;4.012;2023-04-01T05:25:27;3.90;;;1.00;;
23543;SDS011;11950;51.230;4.012;2023-04-01T05:27:53;2.28;;;0.88;;
23543;SDS011;11950;51.230;4.012;2023-04-01T05:30:20;2.85;;;0.70;;
23543;SDS011;11950;51.230;4.012;2023-04-01T05:32:58;1.83;;;0.70;;
23543;SDS011;11950;51.230;4.012;2023-04-01T05:35:25;1.63;;;0.77;;
23543;SDS011;11950;51.230;4.012;2023-04-01T05:37:51;2.33;;;0.70;;
23543;SDS011;11950;51.230;4.012;2023-04-01T05:40:20;1.70;;;0.68;;
23543;SDS011;11950;51.230;4.012;2023-04-01T05:42:46;1.52;;;0.75;;
23543;SDS011;11950;51.230;4.012;2023-04-01T05:45:14;2.45;;;0.80;;
23543;SDS011;11950;51.230;4.012;2023-04-01T05:47:59;1.83;;;0.75;;
23543;SDS011;11950;51.230;4.012;2023-04-01T05:50:29;3.33;;;0.90;;
23543;SDS011;11950;51.230;4.012;2023-04-01T05:52:55;2.50;;;1.00;;
23543;SDS011;11950;51.230;4.012;2023-04-01T05:55:22;2.88;;;0.90;;
23543;SDS011;11950;51.230;4.012;2023-04-01T05:57:50;2.35;;;0.70;;
23543;SDS011;11950;51.230;4.012;2023-04-01T06:00:16;0.70;;;0.60;;
23543;SDS011;11950;51.230;4.012;2023-04-01T06:02:44;1.58;;;0.50;;
23543;SDS011;11950;51.230;4.012;2023-04-01T06:05:13;1.33;;;0.60;;
23543;SDS011;11950;51.230;4.012;2023-04-01T06:07:47;3.63;;;0.60;;
23543;SDS011;11950;51.230;4.012;2023-04-01T06:10:16;1.80;;;0.40;;
23543;SDS011;11950;51.230;4.012;2023-04-01T06:12:55;2.97;;;0.50;;
23543;SDS011;11950;51.230;4.012;2023-04-01T06:41:01;1.08;;;0.50;;
23543;SDS011;11950;51.230;4.012;2023-04-01T06:43:41;0.55;;;0.47;;
23543;SDS011;11950;51.230;4.012;2023-04-01T06:46:55;1.95;;;0.40;;
23543;SDS011;11950;51.230;4.012;2023-04-01T06:53:12;1.13;;;0.57;;
23543;SDS011;11950;51.230;4.012;2023-04-01T06:56:28;2.13;;;0.88;;
23543;SDS011;11950;51.230;4.012;2023-04-01T06:59:10;2.10;;;0.70;;
23543;SDS011;11950;51.230;4.012;2023-04-01T07:01:42;2.17;;;0.60;;
23543;SDS011;11950;51.230;4.012;2023-04-01T07:04:26;0.95;;;0.73;;
23543;SDS011;11950;51.230;4.012;2023-04-01T07:07:12;0.93;;;0.70;;
23543;SDS011;11950;51.230;4.012;2023-04-01T07:13:20;2.88;;;0.88;;
23543;SDS011;11950;51.230;4.012;2023-04-01T07:18:37;1.98;;;0.70;;
23543;SDS011;11950;51.230;4.012;2023-04-01T07:21:17;2.17;;;0.60;;
23543;SDS011;11950;51.230;4.012;2023-04-01T07:24:27;0.80;;;0.52;;
23543;SDS011;11950;51.230;4.012;2023-04-01T07:27:05;1.27;;;0.63;;
23543;SDS011;11950;51.230;4.012;2023-04-01T07:29:37;1.83;;;0.57;;
23543;SDS011;11950;51.230;4.012;2023-04-01T07:32:09;2.15;;;0.60;;
23543;SDS011;11950;51.230;4.012;2023-04-01T07:37:28;1.38;;;0.40;;
23543;SDS011;11950;51.230;4.012;2023-04-01T07:40:23;1.05;;;0.55;;
23543;SDS011;11950;51.230;4.012;2023-04-01T07:45:45;0.50;;;0.50;;
23543;SDS011;11950;51.230;4.012;2023-04-01T07:51:29;3.67;;;0.45;;
23543;SDS011;11950;51.230;4.012;2023-04-01T07:54:10;0.43;;;0.35;;
23543;SDS011;11950;51.230;4.012;2023-04-01T07:57:43;0.30;;;0.30;;
23543;SDS011;11950;51.230;4.012;2023-04-01T08:03:07;0.20;;;0.20;;
23543;SDS011;11950;51.230;4.012;2023-04-01T08:05:46;2.05;;;0.40;;
23543;SDS011;11950;51.230;4.012;2023-04-01T08:20:28;1.33;;;0.70;;
23543;SDS011;11950;51.230;4.012;2023-04-01T08:23:11;2.10;;;1.02;;
23543;SDS011;11950;51.230;4.012;2023-04-01T08:25:57;2.70;;;1.20;;
23543;SDS011;11950;51.230;4.012;2023-04-01T08:28:44;2.00;;;0.85;;
23543;SDS011;11950;51.230;4.012;2023-04-01T08:31:18;1.58;;;0.90;;
23543;SDS011;11950;51.230;4.012;2023-04-01T08:33:48;2.25;;;0.75;;
23543;SDS011;11950;51.230;4.012;2023-04-01T08:36:26;1.42;;;0.57;;
23543;SDS011;11950;51.230;4.012;2023-04-01T08:39:11;0.63;;;0.45;;
23543;SDS011;11950;51.230;4.012;2023-04-01T08:58:21;2.03;;;0.88;;
23543;SDS011;11950;51.230;4.012;2023-04-01T09:01:38;3.15;;;1.10;;
23543;SDS011;11950;51.230;4.012;2023-04-01T09:04:25;2.70;;;0.85;;
23543;SDS011;11950;51.230;4.012;2023-04-01T09:11:22;3.25;;;0.80;;
23543;SDS011;11950;51.230;4.012;2023-04-01T09:24:40;0.60;;;0.40;;
23543;SDS011;11950;51.230;4.012;2023-04-01T09:27:36;1.05;;;0.50;;
23543;SDS011;11950;51.230;4.012;2023-04-01T09:46:23;2.00;;;0.43;;
23543;SDS011;11950;51.230;4.012;2023-04-01T09:57:14;0.50;;;0.20;;
23543;SDS011;11950;51.230;4.012;2023-04-01T10:36:24;4.40;;;0.70;;
23543;SDS011;11950;51.230;4.012;2023-04-01T10:45:32;1.98;;;0.80;;
23543;SDS011;11950;51.230;4.012;2023-04-01T10:51:16;1.65;;;0.63;;
23543;SDS011;11950;51.230;4.012;2023-04-01T11:03:40;1.60;;;0.50;;
23543;SDS011;11950;51.230;4.012;2023-04-01T11:09:38;1.23;;;0.43;;
23543;SDS011;11950;51.230;4.012;2023-04-01T11:18:12;2.80;;;0.50;;
23543;SDS011;11950;51.230;4.012;2023-04-01T11:30:02;1.73;;;0.60;;
23543;SDS011;11950;51.230;4.012;2023-04-01T11:32:49;1.10;;;0.40;;
23543;SDS011;11950;51.230;4.012;2023-04-01T11:41:28;1.60;;;0.80;;
23543;SDS011;11950;51.230;4.012;2023-04-01T11:44:22;1.42;;;0.50;;
23543;SDS011;11950;51.230;4.012;2023-04-01T11:55:35;0.70;;;0.60;;
23543;SDS011;11950;51.230;4.012;2023-04-01T12:01:20;2.00;;;0.52;;
23543;SDS011;11950;51.230;4.012;2023-04-01T12:06:48;2.05;;;0.80;;
23543;SDS011;11950;51.230;4.012;2023-04-01T12:26:30;0.77;;;0.50;;
23543;SDS011;11950;51.230;4.012;2023-04-01T12:32:15;1.45;;;0.50;;
23543;SDS011;11950;51.230;4.012;2023-04-01T12:35:45;2.13;;;0.63;;
23543;SDS011;11950;51.230;4.012;2023-04-01T12:41:24;1.10;;;0.70;;
23543;SDS011;11950;51.230;4.012;2023-04-01T12:44:08;2.25;;;0.70;;
23543;SDS011;11950;51.230;4.012;2023-04-01T12:46:41;3.63;;;0.80;;
23543;SDS011;11950;51.230;4.012;2023-04-01T12:49:50;2.63;;;0.75;;
23543;SDS011;11950;51.230;4.012;2023-04-01T13:09:11;1.40;;;0.57;;
23543;SDS011;11950;51.230;4.012;2023-04-01T13:17:43;1.77;;;0.40;;
23543;SDS011;11950;51.230;4.012;2023-04-01T13:23:06;3.15;;;0.30;;
23543;SDS011;11950;51.230;4.012;2023-04-01T13:26:04;1.60;;;0.25;;
23543;SDS011;11950;51.230;4.012;2023-04-01T13:28:53;0.68;;;0.30;;
23543;SDS011;11950;51.230;4.012;2023-04-01T13:34:52;2.15;;;0.43;;
23543;SDS011;11950;51.230;4.012;2023-04-01T13:40:21;5.30;;;0.50;;
23543;SDS011;11950;51.230;4.012;2023-04-01T13:43:07;0.32;;;0.20;;
23543;SDS011;11950;51.230;4.012;2023-04-01T13:46:03;0.82;;;0.30;;
23543;SDS011;11950;51.230;4.012;2023-04-01T13:56:50;0.85;;;0.55;;
23543;SDS011;11950;51.230;4.012;2023-04-01T14:12:44;0.30;;;0.30;;
23543;SDS011;11950;51.230;4.012;2023-04-01T14:18:12;1.00;;;0.30;;
23543;SDS011;11950;51.230;4.012;2023-04-01T14:20:59;1.77;;;0.30;;
23543;SDS011;11950;51.230;4.012;2023-04-01T14:23:39;0.47;;;0.30;;
23543;SDS011;11950;51.230;4.012;2023-04-01T14:37:13;1.48;;;0.80;;
23543;SDS011;11950;51.230;4.012;2023-04-01T14:56:44;0.47;;;0.30;;
23543;SDS011;11950;51.230;4.012;2023-04-01T15:12:57;1.13;;;0.73;;
23543;SDS011;11950;51.230;4.012;2023-04-01T15:23:50;1.40;;;0.60;;
23543;SDS011;11950;51.230;4.012;2023-04-01T15:32:04;1.95;;;0.70;;
23543;SDS011;11950;51.230;4.012;2023-04-01T15:34:57;2.38;;;0.60;;
23543;SDS011;11950;51.230;4.012;2023-04-01T15:40:54;3.65;;;1.20;;
23543;SDS011;11950;51.230;4.012;2023-04-01T15:43:31;4.93;;;1.30;;
23543;SDS011;11950;51.230;4.012;2023-04-01T16:00:04;1.27;;;0.70;;
23543;SDS011;11950;51.230;4.012;2023-04-01T16:15:57;0.73;;;0.60;;
23543;SDS011;11950;51.230;4.012;2023-04-01T16:19:19;1.48;;;0.68;;
23543;SDS011;11950;51.230;4.012;2023-04-01T16:22:16;1.17;;;0.60;;
23543;SDS011;11950;51.230;4.012;2023-04-01T16:34:18;1.90;;;0.90;;
23543;SDS011;11950;51.230;4.012;2023-04-01T16:39:34;6.70;;;3.05;;
23543;SDS011;11950;51.230;4.012;2023-04-01T16:47:34;7.55;;;3.03;;
23543;SDS011;11950;51.230;4.012;2023-04-01T16:50:25;5.72;;;2.10;;
23543;SDS011;11950;51.230;4.012;2023-04-01T16:53:14;6.65;;;2.30;;
23543;SDS011;11950;51.230;4.012;2023-04-01T16:56:04;3.38;;;1.63;;
23543;SDS011;11950;51.230;4.012;2023-04-01T16:58:42;3.95;;;1.48;;
23543;SDS011;11950;51.230;4.012;2023-04-01T17:01:50;4.72;;;1.23;;
23543;SDS011;11950;51.230;4.012;2023-04-01T17:04:26;3.10;;;1.40;;
23543;SDS011;11950;51.230;4.012;2023-04-01T17:18:14;3.55;;;1.35;;
23543;SDS011;11950;51.230;4.012;2023-04-01T17:21:13;3.85;;;1.10;;
23543;SDS011;11950;51.230;4.012;2023-04-01T17:26:28;3.70;;;1.25;;
23543;SDS011;11950;51.230;4.012;2023-04-01T17:29:17;3.83;;;1.20;;
23543;SDS011;11950;51.230;4.012;2023-04-01T17:32:09;4.68;;;1.20;;
23543;SDS011;11950;51.230;4.012;2023-04-01T17:37:49;3.90;;;1.52;;
23543;SDS011;11950;51.230;4.012;2023-04-01T17:40:28;3.65;;;1.40;;
23543;SDS011;11950;51.230;4.012;2023-04-01T17:45:55;4.90;;;1.58;;
23543;SDS011;11950;51.230;4.012;2023-04-01T18:04:17;7.18;;;3.05;;
23543;SDS011;11950;51.230;4.012;2023-04-01T18:15:05;10.68;;;4.03;;
23543;SDS011;11950;51.230;4.012;2023-04-01T18:20:16;12.95;;;3.50;;
23543;SDS011;11950;51.230;4.012;2023-04-01T18:22:58;9.27;;;3.47;;
23543;SDS011;11950;51.230;4.012;2023-04-01T18:25:41;15.68;;;3.70;;
23543;SDS011;11950;51.230;4.012;2023-04-01T18:39:00;12.82;;;3.33;;
23543;SDS011;11950;51.230;4.012;2023-04-01T18:41:36;13.63;;;2.92;;
23543;SDS011;11950;51.230;4.012;2023-04-01T18:44:23;11.57;;;3.72;;
23543;SDS011;11950;51.230;4.012;2023-04-01T18:52:31;12.60;;;3.78;;
23543;SDS011;11950;51.230;4.012;2023-04-01T19:00:20;9.57;;;2.92;;
23543;SDS011;11950;51.230;4.012;2023-04-01T19:02:52;7.93;;;2.80;;
23543;SDS011;11950;51.230;4.012;2023-04-01T19:05:46;10.27;;;3.08;;
23543;SDS011;11950;51.230;4.012;2023-04-01T19:08:28;9.10;;;2.83;;
23543;SDS011;11950;51.230;4.012;2023-04-01T19:14:05;11.02;;;3.15;;
23543;SDS011;11950;51.230;4.012;2023-04-01T19:17:05;13.93;;;3.22;;
23543;SDS011;11950;51.230;4.012;2023-04-01T19:25:40;13.15;;;3.08;;
23543;SDS011;11950;51.230;4.012;2023-04-01T19:34:22;10.35;;;2.97;;
23543;SDS011;11950;51.230;4.012;2023-04-01T19:40:00;16.60;;;2.50;;
23543;SDS011;11950;51.230;4.012;2023-04-01T19:50:46;10.15;;;2.83;;
23543;SDS011;11950;51.230;4.012;2023-04-01T19:56:02;15.88;;;3.47;;
23543;SDS011;11950;51.230;4.012;2023-04-01T20:04:01;13.00;;;3.88;;
23543;SDS011;11950;51.230;4.012;2023-04-01T20:11:56;13.63;;;3.65;;
23543;SDS011;11950;51.230;4.012;2023-04-01T20:14:35;18.55;;;4.97;;
23543;SDS011;11950;51.230;4.012;2023-04-01T20:17:15;12.82;;;4.10;;
23543;SDS011;11950;51.230;4.012;2023-04-01T20:19:53;17.05;;;4.10;;
23543;SDS011;11950;51.230;4.012;2023-04-01T20:22:27;18.02;;;5.95;;
23543;SDS011;11950;51.230;4.012;2023-04-01T20:25:09;10.98;;;4.20;;
23543;SDS011;11950;51.230;4.012;2023-04-01T20:27:56;12.45;;;5.28;;
23543;SDS011;11950;51.230;4.012;2023-04-01T20:30:26;16.23;;;5.15;;
23543;SDS011;11950;51.230;4.012;2023-04-01T20:41:28;19.45;;;7.00;;
23543;SDS011;11950;51.230;4.012;2023-04-01T20:44:12;14.23;;;5.30;;
23543;SDS011;11950;51.230;4.012;2023-04-01T20:46:45;14.98;;;5.90;;
23543;SDS011;11950;51.230;4.012;2023-04-01T20:49:38;11.30;;;5.70;;
23543;SDS011;11950;51.230;4.012;2023-04-01T21:11:32;23.45;;;8.10;;
23543;SDS011;11950;51.230;4.012;2023-04-01T21:28:42;17.65;;;7.80;;
23543;SDS011;11950;51.230;4.012;2023-04-01T21:39:54;12.50;;;6.90;;
23543;SDS011;11950;51.230;4.012;2023-04-01T21:51:17;28.48;;;8.52;;
23543;SDS011;11950;51.230;4.012;2023-04-01T22:02:47;19.42;;;10.00;;
23543;SDS011;11950;51.230;4.012;2023-04-01T22:10:45;16.00;;;10.73;;
23543;SDS011;11950;51.230;4.012;2023-04-01T22:13:37;18.20;;;10.38;;
23543;SDS011;11950;51.230;4.012;2023-04-01T22:19:32;17.52;;;10.65;;
23543;SDS011;11950;51.230;4.012;2023-04-01T22:30:18;19.13;;;11.38;;
23543;SDS011;11950;51.230;4.012;2023-04-01T22:32:52;15.40;;;10.80;;
23543;SDS011;11950;51.230;4.012;2023-04-01T22:35:58;14.73;;;10.90;;
23543;SDS011;11950;51.230;4.012;2023-04-01T22:49:58;13.15;;;10.27;;
23543;SDS011;11950;51.230;4.012;2023-04-01T22:52:31;14.02;;;10.82;;
23543;SDS011;11950;51.230;4.012;2023-04-01T22:55:27;13.70;;;11.30;;
23543;SDS011;11950;51.230;4.012;2023-04-01T22:58:07;15.75;;;12.25;;
23543;SDS011;11950;51.230;4.012;2023-04-01T23:05:56;22.37;;;15.27;;
23543;SDS011;11950;51.230;4.012;2023-04-01T23:11:18;19.20;;;14.52;;
23543;SDS011;11950;51.230;4.012;2023-04-01T23:16:45;17.30;;;14.75;;
23543;SDS011;11950;51.230;4.012;2023-04-01T23:19:31;17.02;;;14.43;;
23543;SDS011;11950;51.230;4.012;2023-04-01T23:22:14;23.20;;;17.23;;
23543;SDS011;11950;51.230;4.012;2023-04-01T23:24:54;22.73;;;17.90;;
23543;SDS011;11950;51.230;4.012;2023-04-01T23:27:46;27.63;;;19.50;;
23543;SDS011;11950;51.230;4.012;2023-04-01T23:35:46;19.50;;;14.55;;
23543;SDS011;11950;51.230;4.012;2023-04-01T23:38:14;15.68;;;11.88;;
23543;SDS011;11950;51.230;4.012;2023-04-01T23:40:41;11.30;;;9.07;;
23543;SDS011;11950;51.230;4.012;2023-04-01T23:43:17;11.73;;;8.20;;
23543;SDS011;11950;51.230;4.012;2023-04-01T23:48:16;10.20;;;7.55;;
23543;SDS011;11950;51.230;4.012;2023-04-01T23:50:45;10.50;;;8.80;;
23543;SDS011;11950;51.230;4.012;2023-04-01T23:55:50;12.38;;;10.35;;
